Time;durP1;ratioP1;P1;durP2;ratioP2;P2;SDS_P1;SDS_P2;PMS_P1;PMS_P2;Temp;Humidity;BMP_temperature;BMP_pressure;BME280_temperature;BME280_humidity;BME280_pressure;Samples;Min_cycle;Max_cycle;Signal;HPM_P1;HPM_P2
2023/09/26 00:00:15;;;;;;;1.50;0.93;;;;;;;13.94;100.00;101901.38;4881727;29;20458;-70
2023/09/26 00:02:46;;;;;;;0.80;0.40;;;;;;;13.91;100.00;101900.94;4882236;29;20872;-70
2023/09/26 00:05:19;;;;;;;0.80;0.43;;;;;;;13.79;100.00;101903.38;4893724;29;20441;-69
2023/09/26 00:07:50;;;;;;;1.20;0.60;;;;;;;13.66;100.00;101891.56;4898571;29;20952;-69
2023/09/26 00:10:20;;;;;;;0.80;0.50;;;;;;;13.73;100.00;101898.72;4879717;29;20463;-70
2023/09/26 00:12:51;;;;;;;0.90;0.60;;;;;;;13.81;100.00;101895.84;4880056;29;20434;-67
2023/09/26 00:15:20;;;;;;;1.00;0.90;;;;;;;13.63;100.00;101897.41;4878185;29;20422;-69
2023/09/26 00:17:52;;;;;;;0.80;0.50;;;;;;;13.63;100.00;101898.25;4883342;29;20485;-68
2023/09/26 00:20:27;;;;;;;1.00;0.60;;;;;;;13.63;100.00;101886.53;4876600;29;20453;-71
2023/09/26 00:23:00;;;;;;;0.90;0.50;;;;;;;13.68;100.00;101889.50;4878182;29;20822;-69
2023/09/26 00:25:29;;;;;;;1.40;1.30;;;;;;;13.80;100.00;101896.88;4879515;29;20455;-69
2023/09/26 00:27:58;;;;;;;1.00;0.80;;;;;;;13.75;100.00;101890.34;4881311;29;20447;-70
2023/09/26 00:30:29;;;;;;;0.80;0.50;;;;;;;13.64;100.00;101893.66;4877606;29;20487;-70
2023/09/26 00:32:59;;;;;;;0.80;0.50;;;;;;;13.60;100.00;101881.47;4883868;29;20424;-70
2023/09/26 00:35:32;;;;;;;1.00;0.70;;;;;;;13.66;100.00;101888.81;4878712;29;20447;-70
2023/09/26 00:38:02;;;;;;;1.00;0.80;;;;;;;13.54;100.00;101882.28;4878488;29;20455;-70
2023/09/26 00:40:31;;;;;;;0.80;0.50;;;;;;;13.80;100.00;101882.44;4877024;29;20487;-71
2023/09/26 00:43:01;;;;;;;1.40;0.80;;;;;;;13.70;100.00;101888.22;4877524;29;20406;-70
2023/09/26 00:45:31;;;;;;;0.93;0.80;;;;;;;13.59;100.00;101879.81;4882605;29;20434;-70
2023/09/26 00:48:03;;;;;;;0.90;0.60;;;;;;;13.51;100.00;101882.69;4878139;29;20437;-70
2023/09/26 00:50:34;;;;;;;0.90;0.60;;;;;;;13.43;100.00;101875.47;4876789;29;20510;-69
2023/09/26 00:53:06;;;;;;;1.20;1.10;;;;;;;13.36;100.00;101875.41;4879980;29;20561;-68
2023/09/26 00:55:36;;;;;;;0.80;0.40;;;;;;;13.59;100.00;101885.25;4878866;29;20948;-70
2023/09/26 00:58:06;;;;;;;0.83;0.57;;;;;;;13.51;100.00;101883.50;4880564;29;20459;-69
2023/09/26 01:00:36;;;;;;;0.80;0.50;;;;;;;13.34;100.00;101882.94;4880208;29;20487;-68
2023/09/26 01:03:06;;;;;;;1.10;1.00;;;;;;;13.30;100.00;101876.22;4877451;29;20927;-68
2023/09/26 01:05:39;;;;;;;1.00;0.77;;;;;;;13.38;100.00;101881.50;4879717;29;21016;-68
2023/09/26 01:08:09;;;;;;;2.20;0.80;;;;;;;13.50;100.00;101876.41;4878388;29;20427;-69
2023/09/26 01:10:39;;;;;;;2.27;1.10;;;;;;;13.61;100.00;101883.13;4881485;29;20438;-70
2023/09/26 01:13:08;;;;;;;1.00;0.80;;;;;;;13.45;100.00;101874.28;4876649;29;20515;-69
2023/09/26 01:15:39;;;;;;;0.80;0.50;;;;;;;13.51;100.00;101869.06;4879478;29;20414;-69
2023/09/26 01:18:10;;;;;;;0.90;0.73;;;;;;;13.49;100.00;101875.56;4879412;29;20848;-68
2023/09/26 01:20:44;;;;;;;0.80;0.50;;;;;;;13.60;100.00;101866.00;4875507;29;20577;-69
2023/09/26 01:23:15;;;;;;;1.03;0.90;;;;;;;13.51;100.00;101863.63;4883231;29;20448;-69
2023/09/26 01:25:48;;;;;;;0.80;0.50;;;;;;;13.58;100.00;101861.78;4882963;29;20431;-69
2023/09/26 01:28:19;;;;;;;0.90;0.73;;;;;;;13.46;100.00;101870.50;4871816;29;21043;-69
2023/09/26 01:30:49;;;;;;;1.00;0.57;;;;;;;13.39;100.00;101868.75;4875575;29;20475;-69
2023/09/26 01:33:20;;;;;;;1.30;1.07;;;;;;;13.36;100.00;101861.81;4877791;29;20458;-69
2023/09/26 01:35:52;;;;;;;0.90;0.70;;;;;;;13.42;100.00;101868.38;4877826;29;20960;-69
2023/09/26 01:38:25;;;;;;;0.80;0.53;;;;;;;13.54;100.00;101866.78;4878434;29;20429;-67
2023/09/26 01:40:58;;;;;;;1.10;1.00;;;;;;;13.34;100.00;101855.75;4881402;29;20445;-70
2023/09/26 01:43:27;;;;;;;0.90;0.50;;;;;;;13.27;100.00;101862.16;4874496;29;20911;-70
2023/09/26 01:45:57;;;;;;;0.80;0.50;;;;;;;13.25;100.00;101867.81;4882316;29;20460;-70
2023/09/26 01:48:27;;;;;;;1.10;0.83;;;;;;;13.23;100.00;101859.00;4882116;29;20507;-69
2023/09/26 01:50:57;;;;;;;2.60;1.03;;;;;;;13.23;100.00;101859.00;4874247;29;20464;-69
2023/09/26 01:53:27;;;;;;;0.80;0.47;;;;;;;13.21;100.00;101855.66;4875769;29;20455;-70
2023/09/26 01:56:02;;;;;;;1.10;0.93;;;;;;;13.22;100.00;101854.59;4876054;29;20504;-70
2023/09/26 01:58:32;;;;;;;1.47;0.73;;;;;;;13.31;100.00;101850.69;4878816;29;20470;-70
2023/09/26 02:01:02;;;;;;;0.80;0.53;;;;;;;13.19;100.00;101863.16;4875973;29;20550;-70
2023/09/26 02:03:32;;;;;;;0.90;0.60;;;;;;;13.15;100.00;101856.44;4883608;29;20454;-69
2023/09/26 02:06:01;;;;;;;1.00;0.80;;;;;;;13.15;100.00;101851.00;4879248;29;20524;-69
2023/09/26 02:08:31;;;;;;;1.03;0.70;;;;;;;13.16;100.00;101852.69;4879658;29;20459;-70
2023/09/26 02:11:03;;;;;;;0.90;0.80;;;;;;;13.08;100.00;101845.47;4880289;29;20463;-70
2023/09/26 02:13:33;;;;;;;0.80;0.60;;;;;;;13.15;100.00;101851.00;4887152;29;20465;-69
2023/09/26 02:16:04;;;;;;;1.00;0.70;;;;;;;13.15;100.00;101856.44;4879607;29;20485;-69
2023/09/26 02:18:34;;;;;;;2.20;1.30;;;;;;;13.06;100.00;101857.59;4877849;29;20433;-70
2023/09/26 02:21:05;;;;;;;1.00;0.87;;;;;;;13.03;100.00;101863.38;4881261;29;20452;-68
2023/09/26 02:23:35;;;;;;;1.80;0.70;;;;;;;13.02;100.00;101862.53;4876436;29;20425;-69
2023/09/26 02:26:09;;;;;;;0.90;0.60;;;;;;;13.04;100.00;101857.78;4879139;29;20447;-70
2023/09/26 02:28:40;;;;;;;1.00;0.70;;;;;;;13.13;100.00;101858.50;4875670;29;20429;-69
2023/09/26 02:31:16;;;;;;;0.80;0.50;;;;;;;13.07;100.00;101859.25;4879194;29;20487;-69
2023/09/26 02:33:47;;;;;;;1.60;1.50;;;;;;;12.96;100.00;101859.78;4879802;29;20875;-68
2023/09/26 02:36:17;;;;;;;0.90;0.50;;;;;;;12.91;100.00;101854.94;4877627;29;20418;-69
2023/09/26 02:38:47;;;;;;;1.57;1.23;;;;;;;12.98;100.00;101857.69;4879654;29;20466;-68
2023/09/26 02:41:19;;;;;;;2.17;1.27;;;;;;;13.08;100.00;101860.94;4884680;29;20542;-69
2023/09/26 02:43:54;;;;;;;1.43;1.00;;;;;;;12.94;100.00;101857.25;4882168;29;20465;-69
2023/09/26 02:46:24;;;;;;;1.10;0.70;;;;;;;12.90;100.00;101855.13;4878111;29;20429;-69
2023/09/26 02:48:53;;;;;;;1.53;0.83;;;;;;;12.88;100.00;101854.47;4885334;29;20423;-68
2023/09/26 02:51:23;;;;;;;0.80;0.50;;;;;;;12.80;100.00;101854.59;4875445;29;20498;-67
2023/09/26 02:53:53;;;;;;;0.90;0.60;;;;;;;12.76;100.00;101853.31;4883768;29;20425;-69
2023/09/26 02:56:24;;;;;;;0.80;0.40;;;;;;;12.77;100.00;101857.72;4889463;29;20430;-69
2023/09/26 02:58:54;;;;;;;1.63;0.70;;;;;;;12.74;100.00;101853.50;4879920;29;20433;-69
2023/09/26 03:01:25;;;;;;;0.80;0.60;;;;;;;13.07;100.00;101853.81;4881028;29;20457;-70
2023/09/26 03:03:56;;;;;;;2.80;1.17;;;;;;;12.86;100.00;101861.97;4887468;29;20778;-69
2023/09/26 03:06:26;;;;;;;1.10;0.73;;;;;;;12.93;100.00;101860.16;4881168;29;20940;-69
2023/09/26 03:08:58;;;;;;;0.90;0.70;;;;;;;12.75;100.00;101859.78;4881369;29;20507;-70
2023/09/26 03:11:32;;;;;;;0.80;0.60;;;;;;;12.77;100.00;101863.16;4876068;29;20449;-71
2023/09/26 03:14:03;;;;;;;1.17;0.87;;;;;;;12.91;100.00;101863.09;4879837;29;20489;-70
2023/09/26 03:16:33;;;;;;;1.60;0.90;;;;;;;12.88;100.00;101860.75;4877772;29;20829;-68
2023/09/26 03:19:03;;;;;;;0.80;0.67;;;;;;;12.80;100.00;101862.75;4881512;29;20853;-69
2023/09/26 03:21:33;;;;;;;0.80;0.50;;;;;;;12.99;100.00;101856.66;4879454;29;21010;-71
2023/09/26 03:24:03;;;;;;;0.83;0.53;;;;;;;13.15;100.00;101853.72;4879861;29;20878;-69
2023/09/26 03:26:34;;;;;;;1.67;1.00;;;;;;;13.07;100.00;101859.25;4879083;29;20426;-71
2023/09/26 03:29:04;;;;;;;3.00;1.93;;;;;;;12.99;100.00;101859.38;4877544;29;20426;-69
2023/09/26 03:31:35;;;;;;;0.80;0.60;;;;;;;12.98;100.00;101855.81;4881188;29;20465;-68
2023/09/26 03:34:05;;;;;;;1.13;0.90;;;;;;;12.92;100.00;101850.34;4881374;29;20461;-69
2023/09/26 03:36:34;;;;;;;1.13;1.00;;;;;;;12.96;100.00;101848.91;4879710;29;20430;-69
2023/09/26 03:39:06;;;;;;;1.87;1.73;;;;;;;12.90;100.00;101852.41;4880525;29;20935;-69
2023/09/26 03:41:40;;;;;;;0.80;0.50;;;;;;;12.75;100.00;101843.47;4880031;29;20530;-69
2023/09/26 03:44:09;;;;;;;0.97;0.87;;;;;;;12.90;100.00;101838.81;4879524;29;20413;-69
2023/09/26 03:46:39;;;;;;;1.53;1.33;;;;;;;12.81;100.00;101848.97;4879687;29;20460;-68
2023/09/26 03:49:09;;;;;;;0.80;0.60;;;;;;;12.61;100.00;101840.63;4878566;29;20458;-68
2023/09/26 03:51:39;;;;;;;0.80;0.50;;;;;;;12.63;100.00;101838.53;4879713;29;20471;-69
2023/09/26 03:54:09;;;;;;;1.83;1.67;;;;;;;12.69;100.00;101838.81;4878902;29;20467;-70
2023/09/26 03:56:41;;;;;;;0.80;0.50;;;;;;;12.58;100.00;101832.03;4879869;29;20533;-70
2023/09/26 03:59:12;;;;;;;1.20;1.00;;;;;;;12.61;100.00;101832.47;4876869;29;20436;-69
2023/09/26 04:01:42;;;;;;;2.37;2.17;;;;;;;12.57;100.00;101831.19;4878151;29;20493;-69
2023/09/26 04:04:12;;;;;;;1.23;1.03;;;;;;;12.51;100.00;101831.94;4881700;29;20414;-68
2023/09/26 04:06:43;;;;;;;1.20;1.00;;;;;;;12.64;100.00;101837.50;4879446;29;20471;-70
2023/09/26 04:09:14;;;;;;;0.80;0.53;;;;;;;12.66;100.00;101833.78;4879274;29;20800;-70
2023/09/26 04:11:45;;;;;;;1.20;0.87;;;;;;;12.58;100.00;101832.03;4879358;29;20558;-69
2023/09/26 04:14:15;;;;;;;0.90;0.70;;;;;;;12.48;100.00;101828.78;4879277;29;20467;-70
2023/09/26 04:16:45;;;;;;;1.63;0.87;;;;;;;12.45;100.00;101821.84;4879900;29;20426;-69
2023/09/26 04:19:14;;;;;;;0.97;0.87;;;;;;;12.42;100.00;101832.25;4871525;29;20426;-69
2023/09/26 04:21:45;;;;;;;2.03;1.43;;;;;;;12.40;100.00;101824.31;4878760;29;20560;-70
2023/09/26 04:24:15;;;;;;;1.00;0.80;;;;;;;12.40;100.00;101821.59;4885446;29;20866;-70
2023/09/26 04:26:46;;;;;;;0.80;0.50;;;;;;;12.37;100.00;101821.97;4882487;29;20421;-70
2023/09/26 04:29:16;;;;;;;0.80;0.70;;;;;;;12.32;100.00;101819.00;4879740;29;20941;-69
2023/09/26 04:31:46;;;;;;;0.90;0.80;;;;;;;12.28;100.00;101812.28;4888758;29;20915;-69
2023/09/26 04:34:17;;;;;;;1.50;1.40;;;;;;;12.26;100.00;101817.03;4892598;29;20459;-70
2023/09/26 04:36:48;;;;;;;2.60;2.43;;;;;;;12.20;100.00;101817.78;4881470;29;20982;-70
2023/09/26 04:39:18;;;;;;;0.90;0.67;;;;;;;12.21;100.00;101811.34;4879332;29;20446;-70
2023/09/26 04:41:51;;;;;;;1.77;1.67;;;;;;;12.20;100.00;101812.38;4882294;29;20486;-70
2023/09/26 04:44:21;;;;;;;1.10;1.00;;;;;;;12.23;100.00;101812.00;4880684;29;20414;-69
2023/09/26 04:46:51;;;;;;;1.50;1.23;;;;;;;12.32;100.00;101810.00;4888497;29;20410;-70
2023/09/26 04:49:21;;;;;;;1.37;0.93;;;;;;;12.59;100.00;101809.25;4882644;29;20458;-69
2023/09/26 04:51:52;;;;;;;1.63;1.53;;;;;;;12.87;100.00;101806.63;4882512;29;20836;-69
2023/09/26 04:54:22;;;;;;;0.90;0.70;;;;;;;13.16;100.00;101814.66;4881102;29;20443;-70
2023/09/26 04:56:53;;;;;;;0.80;0.50;;;;;;;13.24;100.00;101808.22;4878783;29;20426;-69
2023/09/26 04:59:23;;;;;;;1.70;1.17;;;;;;;13.02;100.00;101810.09;4880982;29;20468;-71
2023/09/26 05:01:53;;;;;;;0.90;0.67;;;;;;;13.24;100.00;101806.34;4883137;29;20450;-69
2023/09/26 05:04:26;;;;;;;2.50;0.93;;;;;;;13.31;100.00;101807.22;4877292;29;20443;-68
2023/09/26 05:06:56;;;;;;;0.80;0.50;;;;;;;13.49;100.00;101810.28;4880367;29;20467;-69
2023/09/26 05:09:26;;;;;;;0.80;0.50;;;;;;;13.62;100.00;101803.22;4880154;29;20546;-69
2023/09/26 05:11:58;;;;;;;1.20;1.03;;;;;;;13.68;100.00;101797.84;4876748;29;20471;-69
2023/09/26 05:14:28;;;;;;;3.67;3.40;;;;;;;13.74;100.00;101809.81;4880485;29;20450;-69
2023/09/26 05:16:58;;;;;;;0.80;0.50;;;;;;;13.53;100.00;101805.28;4877888;29;20457;-69
2023/09/26 05:19:28;;;;;;;1.00;0.87;;;;;;;13.53;100.00;101799.00;4880641;29;20425;-69
2023/09/26 05:21:58;;;;;;;4.63;3.83;;;;;;;13.31;100.00;101806.41;4879428;29;20824;-69
2023/09/26 05:24:28;;;;;;;1.20;0.70;;;;;;;13.44;100.00;101801.88;4874391;29;20823;-69
2023/09/26 05:26:59;;;;;;;0.80;0.50;;;;;;;13.54;100.00;101800.69;4883070;29;20443;-69
2023/09/26 05:29:33;;;;;;;1.20;0.83;;;;;;;13.42;100.00;101801.22;4881622;29;20471;-69
2023/09/26 05:32:03;;;;;;;1.90;1.60;;;;;;;13.69;100.00;101804.13;4875626;29;20460;-69
2023/09/26 05:34:35;;;;;;;1.20;1.03;;;;;;;13.75;100.00;101806.88;4869598;29;20469;-69
2023/09/26 05:37:05;;;;;;;0.80;0.50;;;;;;;13.90;100.00;101806.72;4879872;29;20479;-70
2023/09/26 05:39:35;;;;;;;2.03;0.97;;;;;;;13.82;100.00;101806.91;4872739;29;20463;-69
2023/09/26 05:42:08;;;;;;;0.87;0.70;;;;;;;13.85;100.00;101814.66;4877914;29;20482;-69
2023/09/26 05:44:38;;;;;;;3.03;1.27;;;;;;;13.82;100.00;101815.06;4879714;29;20521;-70
2023/09/26 05:47:08;;;;;;;2.30;1.33;;;;;;;13.90;100.00;101813.03;4878990;29;20481;-68
2023/09/26 05:49:39;;;;;;;1.33;1.00;;;;;;;14.04;100.00;101813.91;4876618;29;20455;-70
2023/09/26 05:52:09;;;;;;;1.30;0.60;;;;;;;13.87;100.00;101820.75;4879458;29;20503;-69
2023/09/26 05:54:39;;;;;;;1.00;0.63;;;;;;;14.00;100.00;101818.09;4883643;29;20439;-69
2023/09/26 05:57:11;;;;;;;1.40;0.70;;;;;;;14.18;100.00;101815.69;4880201;29;20530;-69
2023/09/26 05:59:41;;;;;;;1.40;0.90;;;;;;;14.27;100.00;101816.31;4882772;29;20427;-69
2023/09/26 06:02:14;;;;;;;1.87;1.00;;;;;;;14.35;100.00;101816.97;4878608;29;21386;-69
2023/09/26 06:04:47;;;;;;;1.10;0.90;;;;;;;14.51;100.00;101821.25;4878729;29;20461;-69
2023/09/26 06:07:17;;;;;;;1.00;0.80;;;;;;;14.62;100.00;101823.34;4883364;29;20512;-68
2023/09/26 06:09:48;;;;;;;0.93;0.70;;;;;;;14.57;100.00;101819.59;4878336;29;20553;-69
2023/09/26 06:12:38;;;;;;;0.90;0.70;;;;;;;14.45;100.00;101827.50;4885160;29;20975;-69
2023/09/26 06:15:10;;;;;;;2.00;1.90;;;;;;;14.53;100.00;101823.75;4878058;29;20451;-68
2023/09/26 06:17:43;;;;;;;1.17;0.87;;;;;;;14.79;100.00;101824.66;4884070;29;20512;-69
2023/09/26 06:20:14;;;;;;;0.80;0.50;;;;;;;14.85;100.00;101817.53;4876618;29;20438;-69
2023/09/26 06:22:44;;;;;;;0.90;0.60;;;;;;;14.88;100.00;101828.03;4880154;29;20442;-69
2023/09/26 06:25:14;;;;;;;2.50;1.77;;;;;;;14.73;100.00;101830.94;4877450;29;20794;-70
2023/09/26 06:27:45;;;;;;;1.90;1.30;;;;;;;14.75;100.00;101826.13;4877204;29;20438;-70
2023/09/26 06:30:14;;;;;;;0.80;0.50;;;;;;;14.95;100.00;101837.06;4877787;29;21082;-70
2023/09/26 06:32:44;;;;;;;1.57;1.07;;;;;;;15.18;100.00;101840.22;4876627;29;20414;-69
2023/09/26 06:35:14;;;;;;;1.33;1.23;;;;;;;15.52;100.00;101830.16;4873332;29;20463;-70
2023/09/26 06:37:45;;;;;;;2.40;2.20;;;;;;;15.61;100.00;101834.31;4871801;29;20406;-69
2023/09/26 06:40:14;;;;;;;0.80;0.50;;;;;;;15.80;100.00;101833.44;4872823;29;20474;-70
2023/09/26 06:42:46;;;;;;;1.17;0.70;;;;;;;15.99;100.00;101832.53;4875931;29;20485;-69
2023/09/26 06:45:16;;;;;;;2.77;1.70;;;;;;;16.00;100.00;101828.78;4879102;29;20458;-69
2023/09/26 06:47:46;;;;;;;4.90;4.50;;;;;;;16.28;100.00;101830.31;4877185;29;20872;-69
2023/09/26 06:50:16;;;;;;;2.87;0.90;;;;;;;16.19;100.00;101831.63;4878224;29;20428;-69
2023/09/26 06:52:46;;;;;;;1.43;1.33;;;;;;;16.36;100.00;101824.63;4879462;29;20940;-68
2023/09/26 06:55:17;;;;;;;1.33;1.20;;;;;;;16.41;100.00;101830.28;4877613;29;20459;-68
2023/09/26 06:57:48;;;;;;;1.10;0.90;;;;;;;16.59;100.00;101827.69;4884566;29;20830;-69
2023/09/26 07:00:19;;;;;;;4.10;2.20;;;;;;;16.62;100.00;101826.41;4880612;29;20422;-69
2023/09/26 07:02:50;;;;;;;1.33;0.97;;;;;;;16.74;100.00;101822.75;4877617;29;20450;-69
2023/09/26 07:05:20;;;;;;;2.13;1.03;;;;;;;16.80;100.00;101823.75;4875196;29;20460;-68
2023/09/26 07:07:50;;;;;;;1.47;1.23;;;;;;;16.89;100.00;101822.44;4883881;29;20441;-68
2023/09/26 07:10:22;;;;;;;1.73;1.30;;;;;;;16.84;100.00;101820.38;4878724;29;20770;-69
2023/09/26 07:12:53;;;;;;;3.77;2.33;;;;;;;16.91;100.00;101821.16;4877684;29;20457;-69
2023/09/26 07:15:28;;;;;;;2.27;1.77;;;;;;;17.03;100.00;101825.91;4879384;29;20445;-69
2023/09/26 07:17:58;;;;;;;1.10;0.90;;;;;;;17.00;100.00;101826.34;4875369;29;20440;-68
2023/09/26 07:20:28;;;;;;;4.73;1.67;;;;;;;17.22;100.00;101824.91;4879255;29;20511;-68
2023/09/26 07:23:00;;;;;;;1.57;0.57;;;;;;;17.39;100.00;101829.59;4883317;29;20544;-70
2023/09/26 07:25:29;;;;;;;2.60;2.40;;;;;;;17.55;99.46;101828.19;4876732;29;20413;-68
2023/09/26 07:28:01;;;;;;;1.33;1.10;;;;;;;17.68;98.74;101833.53;4872156;29;20434;-71
2023/09/26 07:30:33;;;;;;;3.23;2.93;;;;;;;17.74;97.87;101832.66;4894463;29;20501;-70
2023/09/26 07:33:02;;;;;;;1.00;0.60;;;;;;;17.70;98.39;101833.31;4885506;29;20515;-69
2023/09/26 07:35:33;;;;;;;1.40;1.20;;;;;;;17.81;98.45;101832.59;4875319;29;20475;-67
2023/09/26 07:38:04;;;;;;;1.80;0.87;;;;;;;18.01;96.93;101826.88;4877467;29;20941;-68
2023/09/26 07:40:34;;;;;;;1.80;1.30;;;;;;;18.08;96.38;101842.16;4888858;29;20862;-69
2023/09/26 07:43:06;;;;;;;1.80;1.57;;;;;;;18.16;95.37;101841.00;4876521;29;20554;-69
2023/09/26 07:45:40;;;;;;;0.90;0.60;;;;;;;18.23;94.33;101839.03;4878500;29;20418;-69
2023/09/26 07:48:10;;;;;;;1.07;0.87;;;;;;;18.23;94.84;101842.63;4880431;29;20538;-67
2023/09/26 07:50:40;;;;;;;1.47;1.37;;;;;;;18.38;94.20;101838.63;4878966;29;20449;-70
2023/09/26 07:53:10;;;;;;;1.17;0.97;;;;;;;18.61;92.65;101836.88;4873937;29;20944;-69
2023/09/26 07:55:42;;;;;;;1.00;0.60;;;;;;;18.74;91.89;101837.72;4876357;29;20804;-68
2023/09/26 07:58:15;;;;;;;1.00;0.80;;;;;;;18.79;91.53;101841.44;4876137;29;20455;-69
2023/09/26 08:00:46;;;;;;;3.33;3.03;;;;;;;18.84;90.87;101838.00;4875121;29;20882;-69
2023/09/26 08:03:17;;;;;;;3.47;1.63;;;;;;;18.88;90.00;101837.28;4890425;29;20449;-69
2023/09/26 08:05:47;;;;;;;2.57;1.37;;;;;;;18.95;90.27;101834.47;4877280;29;20581;-69
2023/09/26 08:08:17;;;;;;;3.20;1.03;;;;;;;18.93;89.23;101831.09;4888389;29;20509;-69
2023/09/26 08:10:47;;;;;;;2.63;1.80;;;;;;;18.85;90.14;101839.69;4878493;29;20437;-70
2023/09/26 08:13:18;;;;;;;3.70;1.03;;;;;;;18.82;90.48;101837.41;4879020;29;20563;-70
2023/09/26 08:15:48;;;;;;;2.03;1.10;;;;;;;18.87;90.43;101837.56;4876685;29;20425;-69
2023/09/26 08:18:20;;;;;;;1.30;1.07;;;;;;;18.91;89.78;101836.00;4876421;29;20447;-69
2023/09/26 08:20:55;;;;;;;3.60;1.87;;;;;;;18.95;89.15;101838.03;4872756;29;20437;-70
2023/09/26 08:23:25;;;;;;;2.70;1.30;;;;;;;19.15;88.58;101835.00;4873522;29;20536;-70
2023/09/26 08:26:00;;;;;;;6.70;4.40;;;;;;;19.29;88.54;101838.34;4874779;29;20434;-69
2023/09/26 08:28:31;;;;;;;3.93;1.57;;;;;;;19.48;86.82;101824.31;4875094;29;20601;-69
2023/09/26 08:31:07;;;;;;;2.33;1.63;;;;;;;19.61;85.07;101827.88;4877897;29;20464;-68
2023/09/26 08:33:38;;;;;;;1.13;1.03;;;;;;;19.77;84.24;101836.22;4878269;29;20459;-68
2023/09/26 08:36:15;;;;;;;1.03;0.63;;;;;;;19.95;82.58;101827.00;4879851;29;20525;-68
2023/09/26 08:38:45;;;;;;;2.37;2.13;;;;;;;19.95;82.91;101835.22;4875548;29;20451;-69
2023/09/26 08:41:17;;;;;;;2.00;1.80;;;;;;;19.78;82.99;101831.56;4879381;29;20450;-69
2023/09/26 08:43:50;;;;;;;3.53;2.67;;;;;;;19.96;82.19;101834.16;4875923;29;20497;-68
2023/09/26 08:46:20;;;;;;;1.33;0.80;;;;;;;20.06;81.85;101834.38;4887315;29;20460;-69
2023/09/26 08:48:50;;;;;;;3.10;2.23;;;;;;;20.11;80.92;101833.66;4882807;29;20822;-69
2023/09/26 08:51:21;;;;;;;2.13;1.63;;;;;;;20.21;81.03;101840.22;4878083;29;20543;-69
2023/09/26 08:53:52;;;;;;;2.07;1.90;;;;;;;20.13;80.59;101829.59;4877865;29;20420;-71
2023/09/26 08:56:23;;;;;;;3.00;1.50;;;;;;;20.13;80.84;101829.59;4877923;29;20458;-69
2023/09/26 08:58:56;;;;;;;1.67;1.17;;;;;;;20.23;81.22;101826.22;4874757;29;20438;-67
2023/09/26 09:01:27;;;;;;;4.23;2.23;;;;;;;20.44;80.35;101824.72;4880402;29;20484;-69
2023/09/26 09:03:56;;;;;;;3.80;1.73;;;;;;;20.34;79.84;101828.97;4880129;29;20486;-69
2023/09/26 09:06:26;;;;;;;2.03;1.43;;;;;;;20.39;79.22;101819.97;4877140;29;20443;-69
2023/09/26 09:09:09;;;;;;;2.30;1.53;;;;;;;20.45;79.69;101830.00;4880381;29;20479;-70
2023/09/26 09:11:39;;;;;;;1.53;1.00;;;;;;;20.63;77.55;101828.97;4876338;29;20480;-69
2023/09/26 09:14:10;;;;;;;2.10;1.43;;;;;;;20.80;76.29;101827.09;4883878;29;20525;-69
2023/09/26 09:16:40;;;;;;;1.10;0.90;;;;;;;20.66;76.34;101825.72;4877017;29;20847;-68
2023/09/26 09:19:09;;;;;;;2.97;2.10;;;;;;;20.62;76.62;101830.06;4875735;29;20482;-69
2023/09/26 09:21:39;;;;;;;2.83;1.40;;;;;;;20.57;76.59;101827.22;4879206;29;20465;-70
2023/09/26 09:24:08;;;;;;;1.70;1.60;;;;;;;20.82;76.53;101822.16;4877269;29;20505;-67
2023/09/26 09:26:38;;;;;;;4.87;2.90;;;;;;;21.04;75.25;101823.13;4878626;29;20496;-68
2023/09/26 09:29:21;;;;;;;3.13;1.43;;;;;;;21.06;74.28;101818.19;4877383;29;20465;-68
2023/09/26 09:31:53;;;;;;;2.07;1.57;;;;;;;21.11;73.65;101821.03;4880459;29;20565;-68
2023/09/26 09:34:25;;;;;;;3.03;1.47;;;;;;;21.04;73.99;101816.78;4876124;29;20510;-69
2023/09/26 09:36:57;;;;;;;1.00;0.63;;;;;;;21.17;73.55;101810.97;4880147;29;20457;-68
2023/09/26 09:39:27;;;;;;;1.60;1.30;;;;;;;21.15;73.66;101814.00;4877820;29;20466;-68
2023/09/26 09:41:58;;;;;;;1.43;0.77;;;;;;;21.23;72.32;101809.97;4873832;29;20475;-68
2023/09/26 09:44:30;;;;;;;1.40;1.00;;;;;;;21.36;72.17;101814.28;4875840;29;20486;-68
2023/09/26 09:47:04;;;;;;;3.63;1.20;;;;;;;21.18;72.30;101813.47;4876619;29;20522;-68
2023/09/26 09:49:38;;;;;;;1.20;0.97;;;;;;;21.27;72.52;101804.78;4874718;29;20444;-70
2023/09/26 09:52:11;;;;;;;0.90;0.50;;;;;;;21.38;71.82;101801.97;4877069;29;20481;-70
2023/09/26 09:54:45;;;;;;;3.43;1.70;;;;;;;21.32;72.06;101793.84;4883528;29;20794;-69
2023/09/26 09:57:17;;;;;;;1.87;1.20;;;;;;;21.46;71.49;101793.25;4895789;29;20426;-70
2023/09/26 09:59:49;;;;;;;1.70;1.13;;;;;;;21.52;70.98;101792.25;4871290;29;20533;-68
2023/09/26 10:02:20;;;;;;;3.20;1.40;;;;;;;21.62;70.59;101792.41;4870085;29;20441;-68
2023/09/26 10:04:55;;;;;;;1.33;1.23;;;;;;;21.57;70.11;101788.75;4879185;29;20566;-69
2023/09/26 10:07:27;;;;;;;4.20;1.90;;;;;;;21.55;69.33;101788.13;4874320;29;20424;-68
2023/09/26 10:09:57;;;;;;;3.70;1.10;;;;;;;21.75;68.67;101791.19;4879620;29;20436;-69
2023/09/26 10:12:27;;;;;;;1.53;1.40;;;;;;;21.93;68.35;101782.63;4876187;29;20530;-69
2023/09/26 10:15:10;;;;;;;1.40;0.90;;;;;;;22.10;66.91;101788.94;4879158;29;20458;-69
2023/09/26 10:17:41;;;;;;;5.20;1.23;;;;;;;22.09;66.08;101780.91;4875385;29;20430;-70
2023/09/26 10:20:15;;;;;;;1.20;0.90;;;;;;;21.86;66.00;101781.97;4873307;29;20495;-69
2023/09/26 10:23:12;;;;;;;1.97;0.97;;;;;;;21.79;67.25;101778.56;4881539;29;20521;-69
2023/09/26 10:25:44;;;;;;;1.60;0.73;;;;;;;22.08;66.56;101780.06;4876318;29;20489;-69
2023/09/26 10:28:14;;;;;;;1.30;1.20;;;;;;;22.04;66.96;101767.06;4878947;29;20458;-69
2023/09/26 10:30:49;;;;;;;2.17;1.43;;;;;;;22.04;66.85;101775.34;4882070;29;20463;-68
2023/09/26 10:33:20;;;;;;;1.23;0.90;;;;;;;22.24;65.78;101770.06;4876148;29;20458;-69
2023/09/26 10:36:13;;;;;;;1.23;0.83;;;;;;;22.37;64.82;101766.06;4880068;29;21019;-69
2023/09/26 10:38:44;;;;;;;3.30;0.87;;;;;;;22.20;65.54;101766.16;4876635;29;20476;-68
2023/09/26 10:41:14;;;;;;;2.40;1.37;;;;;;;22.22;65.20;101765.91;4879909;29;20553;-68
2023/09/26 10:43:43;;;;;;;2.03;1.20;;;;;;;22.42;64.77;101763.34;4878758;29;20440;-68
2023/09/26 10:46:20;;;;;;;1.33;1.00;;;;;;;22.53;63.99;101759.63;4883416;29;20439;-69
2023/09/26 10:48:50;;;;;;;1.93;1.33;;;;;;;22.70;63.29;101759.50;4879790;29;20549;-67
2023/09/26 10:51:20;;;;;;;2.90;1.80;;;;;;;22.70;63.17;101752.09;4892968;29;20546;-69
2023/09/26 10:53:52;;;;;;;3.40;3.03;;;;;;;22.68;63.03;101751.50;4874951;29;20459;-68
2023/09/26 10:56:23;;;;;;;2.90;1.50;;;;;;;22.81;62.73;101745.56;4879391;29;20546;-68
2023/09/26 10:58:55;;;;;;;2.90;0.90;;;;;;;22.87;63.21;101750.03;4880713;29;20459;-68
2023/09/26 11:01:39;;;;;;;2.13;1.03;;;;;;;23.04;62.18;101746.31;4881557;29;20466;-68
2023/09/26 11:04:08;;;;;;;1.20;1.10;;;;;;;23.13;61.76;101736.44;4875220;29;21033;-69
2023/09/26 11:06:40;;;;;;;2.30;1.50;;;;;;;23.25;60.93;101734.28;4880948;29;20431;-69
2023/09/26 11:09:15;;;;;;;2.30;1.37;;;;;;;23.32;60.80;101740.44;4880894;29;20860;-69
2023/09/26 11:11:45;;;;;;;1.10;0.80;;;;;;;23.55;60.16;101740.03;4877774;29;20830;-69
2023/09/26 11:14:14;;;;;;;1.97;1.27;;;;;;;23.47;60.09;101737.78;4882509;29;20454;-69
2023/09/26 11:16:45;;;;;;;1.33;1.23;;;;;;;23.53;60.82;101742.22;4880107;29;20460;-69
2023/09/26 11:19:15;;;;;;;1.70;1.17;;;;;;;23.64;60.41;101737.59;4877311;29;21026;-68
2023/09/26 11:21:45;;;;;;;5.00;1.33;;;;;;;23.73;60.33;101727.69;4878736;29;21051;-69
2023/09/26 11:24:23;;;;;;;2.73;1.03;;;;;;;23.86;59.58;101729.13;4877334;29;20443;-68
2023/09/26 11:26:56;;;;;;;1.53;0.93;;;;;;;24.05;58.51;101733.91;4876041;29;20495;-69
2023/09/26 11:29:26;;;;;;;1.53;0.90;;;;;;;23.96;58.52;101727.25;4879370;29;20541;-70
2023/09/26 11:31:59;;;;;;;1.07;0.70;;;;;;;24.04;59.09;101720.34;4878042;29;20916;-69
2023/09/26 11:34:29;;;;;;;1.43;1.00;;;;;;;24.18;59.06;101713.22;4874531;29;20459;-69
2023/09/26 11:37:00;;;;;;;1.80;1.00;;;;;;;23.96;59.55;101712.59;4879284;29;20786;-69